sensor_id;sensor_type;location;lat;lon;timestamp;temperature;humidity
65826;DHT22;52586;-43.152;172.732;2024-03-25T00:02:02;22.40;43.60
65826;DHT22;52586;-43.152;172.732;2024-03-25T00:04:32;22.40;43.60
65826;DHT22;52586;-43.152;172.732;2024-03-25T00:07:05;22.40;43.60
65826;DHT22;52586;-43.152;172.732;2024-03-25T00:09:35;22.40;43.60
65826;DHT22;52586;-43.152;172.732;2024-03-25T00:12:05;22.50;43.60
65826;DHT22;52586;-43.152;172.732;2024-03-25T00:14:35;22.40;43.60
65826;DHT22;52586;-43.152;172.732;2024-03-25T00:17:05;22.50;43.70
65826;DHT22;52586;-43.152;172.732;2024-03-25T00:19:38;22.40;43.60
65826;DHT22;52586;-43.152;172.732;2024-03-25T00:22:09;22.50;43.70
65826;DHT22;52586;-43.152;172.732;2024-03-25T00:24:40;22.50;43.70
65826;DHT22;52586;-43.152;172.732;2024-03-25T00:27:09;22.50;43.70
65826;DHT22;52586;-43.152;172.732;2024-03-25T00:29:40;22.50;43.70
65826;DHT22;52586;-43.152;172.732;2024-03-25T00:32:09;22.50;43.70
65826;DHT22;52586;-43.152;172.732;2024-03-25T00:34:40;22.50;43.70
65826;DHT22;52586;-43.152;172.732;2024-03-25T00:37:11;22.60;43.70
65826;DHT22;52586;-43.152;172.732;2024-03-25T00:39:42;22.60;43.70
65826;DHT22;52586;-43.152;172.732;2024-03-25T00:42:11;22.60;43.70
65826;DHT22;52586;-43.152;172.732;2024-03-25T00:44:42;22.60;43.80
65826;DHT22;52586;-43.152;172.732;2024-03-25T00:47:11;22.60;43.80
65826;DHT22;52586;-43.152;172.732;2024-03-25T00:49:42;22.60;43.80
65826;DHT22;52586;-43.152;172.732;2024-03-25T00:52:13;22.60;43.80
65826;DHT22;52586;-43.152;172.732;2024-03-25T00:54:44;22.60;43.80
65826;DHT22;52586;-43.152;172.732;2024-03-25T00:57:13;22.60;43.80
65826;DHT22;52586;-43.152;172.732;2024-03-25T00:59:43;22.70;44.50
65826;DHT22;52586;-43.152;172.732;2024-03-25T01:02:12;22.60;43.90
65826;DHT22;52586;-43.152;172.732;2024-03-25T01:04:43;22.70;43.90
65826;DHT22;52586;-43.152;172.732;2024-03-25T01:07:14;22.70;44.00
65826;DHT22;52586;-43.152;172.732;2024-03-25T01:09:45;22.70;43.90
65826;DHT22;52586;-43.152;172.732;2024-03-25T01:12:14;22.70;44.00
65826;DHT22;52586;-43.152;172.732;2024-03-25T01:14:44;22.70;44.00
65826;DHT22;52586;-43.152;172.732;2024-03-25T01:17:15;22.70;44.00
65826;DHT22;52586;-43.152;172.732;2024-03-25T01:19:45;22.80;44.00
65826;DHT22;52586;-43.152;172.732;2024-03-25T01:22:16;22.80;43.90
65826;DHT22;52586;-43.152;172.732;2024-03-25T01:24:47;22.80;43.90
65826;DHT22;52586;-43.152;172.732;2024-03-25T01:27:16;22.80;43.90
65826;DHT22;52586;-43.152;172.732;2024-03-25T01:29:46;22.90;43.90
65826;DHT22;52586;-43.152;172.732;2024-03-25T01:32:16;22.90;43.90
65826;DHT22;52586;-43.152;172.732;2024-03-25T01:34:46;22.90;43.90
65826;DHT22;52586;-43.152;172.732;2024-03-25T01:37:17;22.90;43.80
65826;DHT22;52586;-43.152;172.732;2024-03-25T01:39:48;22.90;43.80
65826;DHT22;52586;-43.152;172.732;2024-03-25T01:42:17;22.90;43.80
65826;DHT22;52586;-43.152;172.732;2024-03-25T01:44:48;22.90;43.70
65826;DHT22;52586;-43.152;172.732;2024-03-25T01:47:17;23.00;43.80
65826;DHT22;52586;-43.152;172.732;2024-03-25T01:49:48;23.00;43.80
65826;DHT22;52586;-43.152;172.732;2024-03-25T01:52:23;23.00;43.80
65826;DHT22;52586;-43.152;172.732;2024-03-25T01:54:55;23.00;43.80
65826;DHT22;52586;-43.152;172.732;2024-03-25T01:57:24;23.00;44.40
65826;DHT22;52586;-43.152;172.732;2024-03-25T01:59:56;23.10;43.80
65826;DHT22;52586;-43.152;172.732;2024-03-25T02:02:26;23.00;43.70
65826;DHT22;52586;-43.152;172.732;2024-03-25T02:04:57;23.10;43.80
65826;DHT22;52586;-43.152;172.732;2024-03-25T02:07:28;23.10;43.80
65826;DHT22;52586;-43.152;172.732;2024-03-25T02:10:01;23.10;43.80
65826;DHT22;52586;-43.152;172.732;2024-03-25T02:12:32;23.10;43.80
65826;DHT22;52586;-43.152;172.732;2024-03-25T02:15:03;23.20;43.80
65826;DHT22;52586;-43.152;172.732;2024-03-25T02:17:33;23.20;43.80
65826;DHT22;52586;-43.152;172.732;2024-03-25T02:20:05;23.20;43.80
65826;DHT22;52586;-43.152;172.732;2024-03-25T02:22:37;23.30;43.80
65826;DHT22;52586;-43.152;172.732;2024-03-25T02:25:09;23.30;43.70
65826;DHT22;52586;-43.152;172.732;2024-03-25T02:27:40;23.30;43.80
65826;DHT22;52586;-43.152;172.732;2024-03-25T02:30:11;23.30;43.70
65826;DHT22;52586;-43.152;172.732;2024-03-25T02:32:41;23.30;43.70
65826;DHT22;52586;-43.152;172.732;2024-03-25T02:35:14;23.30;43.70
65826;DHT22;52586;-43.152;172.732;2024-03-25T02:37:44;23.40;43.70
65826;DHT22;52586;-43.152;172.732;2024-03-25T02:40:15;23.40;43.70
65826;DHT22;52586;-43.152;172.732;2024-03-25T02:42:46;23.40;43.70
65826;DHT22;52586;-43.152;172.732;2024-03-25T02:45:17;23.50;43.70
65826;DHT22;52586;-43.152;172.732;2024-03-25T02:47:46;23.50;43.70
65826;DHT22;52586;-43.152;172.732;2024-03-25T02:50:17;23.50;43.70
65826;DHT22;52586;-43.152;172.732;2024-03-25T02:52:46;23.50;43.60
65826;DHT22;52586;-43.152;172.732;2024-03-25T02:55:17;23.60;43.70
65826;DHT22;52586;-43.152;172.732;2024-03-25T02:57:48;23.60;43.70
65826;DHT22;52586;-43.152;172.732;2024-03-25T03:00:19;23.60;43.60
65826;DHT22;52586;-43.152;172.732;2024-03-25T03:02:48;23.60;43.60
65826;DHT22;52586;-43.152;172.732;2024-03-25T03:05:18;23.70;43.70
65826;DHT22;52586;-43.152;172.732;2024-03-25T03:07:48;23.70;43.70
65826;DHT22;52586;-43.152;172.732;2024-03-25T03:10:18;23.70;43.60
65826;DHT22;52586;-43.152;172.732;2024-03-25T03:12:49;23.80;43.60
65826;DHT22;52586;-43.152;172.732;2024-03-25T03:15:20;23.80;43.50
65826;DHT22;52586;-43.152;172.732;2024-03-25T03:17:49;23.80;43.50
65826;DHT22;52586;-43.152;172.732;2024-03-25T03:20:20;23.80;43.50
65826;DHT22;52586;-43.152;172.732;2024-03-25T03:22:49;23.80;43.40
65826;DHT22;52586;-43.152;172.732;2024-03-25T03:25:19;23.90;43.30
65826;DHT22;52586;-43.152;172.732;2024-03-25T03:27:50;23.80;43.30
65826;DHT22;52586;-43.152;172.732;2024-03-25T03:30:21;23.90;43.30
65826;DHT22;52586;-43.152;172.732;2024-03-25T03:32:50;23.90;43.30
65826;DHT22;52586;-43.152;172.732;2024-03-25T03:35:21;23.90;43.20
65826;DHT22;52586;-43.152;172.732;2024-03-25T03:37:50;24.00;43.20
65826;DHT22;52586;-43.152;172.732;2024-03-25T03:40:20;24.00;43.10
65826;DHT22;52586;-43.152;172.732;2024-03-25T03:42:51;24.00;43.10
65826;DHT22;52586;-43.152;172.732;2024-03-25T03:45:23;24.00;43.10
65826;DHT22;52586;-43.152;172.732;2024-03-25T03:47:53;24.00;43.10
65826;DHT22;52586;-43.152;172.732;2024-03-25T03:50:23;24.10;43.10
65826;DHT22;52586;-43.152;172.732;2024-03-25T03:52:52;24.10;43.10
65826;DHT22;52586;-43.152;172.732;2024-03-25T03:55:23;24.10;43.10
65826;DHT22;52586;-43.152;172.732;2024-03-25T03:57:54;24.10;43.20
65826;DHT22;52586;-43.152;172.732;2024-03-25T04:00:25;24.10;43.20
65826;DHT22;52586;-43.152;172.732;2024-03-25T04:02:54;24.10;43.20
65826;DHT22;52586;-43.152;172.732;2024-03-25T04:05:24;24.10;43.20
65826;DHT22;52586;-43.152;172.732;2024-03-25T04:07:57;24.20;43.20
65826;DHT22;52586;-43.152;172.732;2024-03-25T04:10:28;24.10;43.00
65826;DHT22;52586;-43.152;172.732;2024-03-25T04:12:59;24.20;43.00
65826;DHT22;52586;-43.152;172.732;2024-03-25T04:15:29;24.20;42.90
65826;DHT22;52586;-43.152;172.732;2024-03-25T04:18:01;24.20;42.90
65826;DHT22;52586;-43.152;172.732;2024-03-25T04:20:37;24.20;42.80
65826;DHT22;52586;-43.152;172.732;2024-03-25T04:23:06;24.20;42.80
65826;DHT22;52586;-43.152;172.732;2024-03-25T04:25:37;24.20;42.80
65826;DHT22;52586;-43.152;172.732;2024-03-25T04:28:08;24.20;42.70
65826;DHT22;52586;-43.152;172.732;2024-03-25T04:30:39;24.20;42.70
65826;DHT22;52586;-43.152;172.732;2024-03-25T04:33:08;24.20;42.80
65826;DHT22;52586;-43.152;172.732;2024-03-25T04:35:39;24.20;42.80
65826;DHT22;52586;-43.152;172.732;2024-03-25T04:38:09;24.20;42.80
65826;DHT22;52586;-43.152;172.732;2024-03-25T04:40:38;24.30;42.80
65826;DHT22;52586;-43.152;172.732;2024-03-25T04:43:08;24.20;42.80
65826;DHT22;52586;-43.152;172.732;2024-03-25T04:45:40;24.30;42.80
65826;DHT22;52586;-43.152;172.732;2024-03-25T04:48:09;24.30;42.90
65826;DHT22;52586;-43.152;172.732;2024-03-25T04:50:38;24.30;42.90
65826;DHT22;52586;-43.152;172.732;2024-03-25T04:53:06;24.30;42.90
65826;DHT22;52586;-43.152;172.732;2024-03-25T04:55:35;24.30;42.90
65826;DHT22;52586;-43.152;172.732;2024-03-25T04:58:04;24.30;42.70
65826;DHT22;52586;-43.152;172.732;2024-03-25T05:00:34;24.30;42.60
65826;DHT22;52586;-43.152;172.732;2024-03-25T05:03:03;24.30;42.60
65826;DHT22;52586;-43.152;172.732;2024-03-25T05:05:32;24.30;42.50
65826;DHT22;52586;-43.152;172.732;2024-03-25T05:08:00;24.30;42.40
65826;DHT22;52586;-43.152;172.732;2024-03-25T05:10:30;24.30;42.30
65826;DHT22;52586;-43.152;172.732;2024-03-25T05:12:58;24.30;42.30
65826;DHT22;52586;-43.152;172.732;2024-03-25T05:15:27;24.30;42.20
65826;DHT22;52586;-43.152;172.732;2024-03-25T05:17:58;24.30;42.20
65826;DHT22;52586;-43.152;172.732;2024-03-25T05:20:26;24.30;42.20
65826;DHT22;52586;-43.152;172.732;2024-03-25T05:22:55;24.30;42.20
65826;DHT22;52586;-43.152;172.732;2024-03-25T05:25:23;24.30;42.20
65826;DHT22;52586;-43.152;172.732;2024-03-25T05:27:52;24.30;42.20
65826;DHT22;52586;-43.152;172.732;2024-03-25T05:30:21;24.30;42.20
65826;DHT22;52586;-43.152;172.732;2024-03-25T05:32:49;24.30;42.30
65826;DHT22;52586;-43.152;172.732;2024-03-25T05:35:20;24.30;42.40
65826;DHT22;52586;-43.152;172.732;2024-03-25T05:37:49;24.30;42.40
65826;DHT22;52586;-43.152;172.732;2024-03-25T05:40:18;24.30;42.50
65826;DHT22;52586;-43.152;172.732;2024-03-25T05:42:46;24.30;42.60
65826;DHT22;52586;-43.152;172.732;2024-03-25T05:45:15;24.30;42.50
65826;DHT22;52586;-43.152;172.732;2024-03-25T05:47:44;24.30;42.50
65826;DHT22;52586;-43.152;172.732;2024-03-25T05:50:12;24.30;42.40
65826;DHT22;52586;-43.152;172.732;2024-03-25T05:52:43;24.30;42.50
65826;DHT22;52586;-43.152;172.732;2024-03-25T05:55:11;24.30;42.40
65826;DHT22;52586;-43.152;172.732;2024-03-25T05:57:40;24.30;42.00
65826;DHT22;52586;-43.152;172.732;2024-03-25T06:00:10;24.20;41.90
65826;DHT22;52586;-43.152;172.732;2024-03-25T06:02:39;24.20;42.10
65826;DHT22;52586;-43.152;172.732;2024-03-25T06:05:08;24.30;41.90
65826;DHT22;52586;-43.152;172.732;2024-03-25T06:07:37;24.30;41.80
65826;DHT22;52586;-43.152;172.732;2024-03-25T06:10:08;24.30;41.80
65826;DHT22;52586;-43.152;172.732;2024-03-25T06:12:36;24.30;41.80
65826;DHT22;52586;-43.152;172.732;2024-03-25T06:15:06;24.30;41.90
65826;DHT22;52586;-43.152;172.732;2024-03-25T06:17:35;24.20;41.90
65826;DHT22;52586;-43.152;172.732;2024-03-25T06:20:03;24.20;41.90
65826;DHT22;52586;-43.152;172.732;2024-03-25T06:22:32;24.20;42.00
65826;DHT22;52586;-43.152;172.732;2024-03-25T06:25:01;24.20;42.00
65826;DHT22;52586;-43.152;172.732;2024-03-25T06:27:32;24.20;42.00
65826;DHT22;52586;-43.152;172.732;2024-03-25T06:30:00;24.20;41.90
65826;DHT22;52586;-43.152;172.732;2024-03-25T06:32:43;24.20;41.80
65826;DHT22;52586;-43.152;172.732;2024-03-25T06:35:30;24.20;41.80
65826;DHT22;52586;-43.152;172.732;2024-03-25T06:37:58;24.20;42.00
65826;DHT22;52586;-43.152;172.732;2024-03-25T06:40:27;24.20;41.90
65826;DHT22;52586;-43.152;172.732;2024-03-25T06:42:58;24.10;41.90
65826;DHT22;52586;-43.152;172.732;2024-03-25T06:45:26;24.10;41.90
65826;DHT22;52586;-43.152;172.732;2024-03-25T06:47:55;24.20;42.00
65826;DHT22;52586;-43.152;172.732;2024-03-25T06:50:24;24.10;42.00
65826;DHT22;52586;-43.152;172.732;2024-03-25T06:52:52;24.20;41.90
65826;DHT22;52586;-43.152;172.732;2024-03-25T06:55:21;24.20;42.00
65826;DHT22;52586;-43.152;172.732;2024-03-25T06:57:50;24.10;41.80
65826;DHT22;52586;-43.152;172.732;2024-03-25T07:00:21;24.20;41.90
65826;DHT22;52586;-43.152;172.732;2024-03-25T07:02:49;24.20;41.80
65826;DHT22;52586;-43.152;172.732;2024-03-25T07:05:18;24.20;41.90
65826;DHT22;52586;-43.152;172.732;2024-03-25T07:07:47;24.10;42.00
65826;DHT22;52586;-43.152;172.732;2024-03-25T07:10:15;24.10;42.00
65826;DHT22;52586;-43.152;172.732;2024-03-25T07:12:44;24.10;42.10
65826;DHT22;52586;-43.152;172.732;2024-03-25T07:15:13;24.10;42.10
65826;DHT22;52586;-43.152;172.732;2024-03-25T07:17:43;24.10;42.10
65826;DHT22;52586;-43.152;172.732;2024-03-25T07:20:12;24.10;42.10
65826;DHT22;52586;-43.152;172.732;2024-03-25T07:22:41;24.10;42.00
65826;DHT22;52586;-43.152;172.732;2024-03-25T07:25:09;24.00;42.00
65826;DHT22;52586;-43.152;172.732;2024-03-25T07:27:38;24.00;42.00
65826;DHT22;52586;-43.152;172.732;2024-03-25T07:30:07;24.00;42.10
65826;DHT22;52586;-43.152;172.732;2024-03-25T07:32:36;24.00;42.00
65826;DHT22;52586;-43.152;172.732;2024-03-25T07:35:07;24.00;42.00
65826;DHT22;52586;-43.152;172.732;2024-03-25T07:37:36;24.00;42.00
65826;DHT22;52586;-43.152;172.732;2024-03-25T07:40:05;24.00;42.00
65826;DHT22;52586;-43.152;172.732;2024-03-25T07:42:34;24.00;42.00
65826;DHT22;52586;-43.152;172.732;2024-03-25T07:45:02;23.90;42.00
65826;DHT22;52586;-43.152;172.732;2024-03-25T07:47:32;24.00;42.10
65826;DHT22;52586;-43.152;172.732;2024-03-25T07:50:00;23.90;42.00
65826;DHT22;52586;-43.152;172.732;2024-03-25T07:52:31;23.90;40.70
65826;DHT22;52586;-43.152;172.732;2024-03-25T07:55:00;23.80;39.40
65826;DHT22;52586;-43.152;172.732;2024-03-25T07:57:28;23.80;40.20
65826;DHT22;52586;-43.152;172.732;2024-03-25T07:59:57;23.70;40.70
65826;DHT22;52586;-43.152;172.732;2024-03-25T08:02:25;23.70;41.00
65826;DHT22;52586;-43.152;172.732;2024-03-25T08:04:54;23.70;41.20
65826;DHT22;52586;-43.152;172.732;2024-03-25T08:07:23;23.70;41.20
65826;DHT22;52586;-43.152;172.732;2024-03-25T08:09:53;23.70;41.30
65826;DHT22;52586;-43.152;172.732;2024-03-25T08:12:22;23.70;41.30
65826;DHT22;52586;-43.152;172.732;2024-03-25T08:14:50;23.70;41.30
65826;DHT22;52586;-43.152;172.732;2024-03-25T08:17:19;23.70;41.40
65826;DHT22;52586;-43.152;172.732;2024-03-25T08:19:48;23.70;41.50
65826;DHT22;52586;-43.152;172.732;2024-03-25T08:22:16;23.70;41.50
65826;DHT22;52586;-43.152;172.732;2024-03-25T08:24:45;23.70;41.50
65826;DHT22;52586;-43.152;172.732;2024-03-25T08:27:15;23.70;41.60
65826;DHT22;52586;-43.152;172.732;2024-03-25T08:29:44;23.70;41.60
65826;DHT22;52586;-43.152;172.732;2024-03-25T08:32:13;23.60;41.50
65826;DHT22;52586;-43.152;172.732;2024-03-25T08:34:41;23.70;41.70
65826;DHT22;52586;-43.152;172.732;2024-03-25T08:37:10;23.70;41.60
65826;DHT22;52586;-43.152;172.732;2024-03-25T08:39:39;23.60;41.50
65826;DHT22;52586;-43.152;172.732;2024-03-25T08:42:07;23.60;41.50
65826;DHT22;52586;-43.152;172.732;2024-03-25T08:44:38;23.60;41.50
65826;DHT22;52586;-43.152;172.732;2024-03-25T08:47:07;23.60;41.50
65826;DHT22;52586;-43.152;172.732;2024-03-25T08:49:35;23.60;41.50
65826;DHT22;52586;-43.152;172.732;2024-03-25T08:52:04;23.60;41.60
65826;DHT22;52586;-43.152;172.732;2024-03-25T08:54:33;23.60;41.60
65826;DHT22;52586;-43.152;172.732;2024-03-25T08:57:02;23.60;41.60
65826;DHT22;52586;-43.152;172.732;2024-03-25T08:59:30;23.60;41.60
65826;DHT22;52586;-43.152;172.732;2024-03-25T09:02:01;23.50;41.60
65826;DHT22;52586;-43.152;172.732;2024-03-25T09:04:29;23.50;41.60
65826;DHT22;52586;-43.152;172.732;2024-03-25T09:06:58;23.50;41.60
65826;DHT22;52586;-43.152;172.732;2024-03-25T09:09:27;23.50;41.70
65826;DHT22;52586;-43.152;172.732;2024-03-25T09:12:13;23.50;41.70
65826;DHT22;52586;-43.152;172.732;2024-03-25T09:14:42;23.50;41.70
65826;DHT22;52586;-43.152;172.732;2024-03-25T09:17:12;23.50;41.70
65826;DHT22;52586;-43.152;172.732;2024-03-25T09:19:41;23.50;41.80
65826;DHT22;52586;-43.152;172.732;2024-03-25T09:22:09;23.50;41.70
65826;DHT22;52586;-43.152;172.732;2024-03-25T09:24:38;23.50;41.70
65826;DHT22;52586;-43.152;172.732;2024-03-25T09:27:07;23.50;41.80
65826;DHT22;52586;-43.152;172.732;2024-03-25T09:29:35;23.50;41.80
65826;DHT22;52586;-43.152;172.732;2024-03-25T09:32:04;23.50;41.80
65826;DHT22;52586;-43.152;172.732;2024-03-25T09:34:35;23.40;41.80
65826;DHT22;52586;-43.152;172.732;2024-03-25T09:37:04;23.40;41.70
65826;DHT22;52586;-43.152;172.732;2024-03-25T09:39:33;23.40;41.80
65826;DHT22;52586;-43.152;172.732;2024-03-25T09:42:03;23.40;41.80
65826;DHT22;52586;-43.152;172.732;2024-03-25T09:44:35;23.40;41.80
65826;DHT22;52586;-43.152;172.732;2024-03-25T09:47:04;23.40;41.90
65826;DHT22;52586;-43.152;172.732;2024-03-25T09:49:36;23.40;41.90
65826;DHT22;52586;-43.152;172.732;2024-03-25T09:52:05;23.30;41.80
65826;DHT22;52586;-43.152;172.732;2024-03-25T09:54:34;23.40;41.90
65826;DHT22;52586;-43.152;172.732;2024-03-25T09:57:03;23.30;41.90
65826;DHT22;52586;-43.152;172.732;2024-03-25T09:59:32;23.30;42.00
65826;DHT22;52586;-43.152;172.732;2024-03-25T10:02:01;23.30;42.00
65826;DHT22;52586;-43.152;172.732;2024-03-25T10:04:30;23.30;42.00
65826;DHT22;52586;-43.152;172.732;2024-03-25T10:07:00;23.30;42.00
65826;DHT22;52586;-43.152;172.732;2024-03-25T10:09:29;23.30;42.00
65826;DHT22;52586;-43.152;172.732;2024-03-25T10:11:58;23.30;42.60
65826;DHT22;52586;-43.152;172.732;2024-03-25T10:14:27;23.30;42.00
65826;DHT22;52586;-43.152;172.732;2024-03-25T10:16:56;23.30;42.00
65826;DHT22;52586;-43.152;172.732;2024-03-25T10:19:25;23.30;42.00
65826;DHT22;52586;-43.152;172.732;2024-03-25T10:22:04;23.30;42.00
65826;DHT22;52586;-43.152;172.732;2024-03-25T10:24:41;23.30;42.00
65826;DHT22;52586;-43.152;172.732;2024-03-25T10:27:17;23.20;42.00
65826;DHT22;52586;-43.152;172.732;2024-03-25T10:29:46;23.20;42.00
65826;DHT22;52586;-43.152;172.732;2024-03-25T10:32:15;23.20;42.00
65826;DHT22;52586;-43.152;172.732;2024-03-25T10:34:44;23.20;42.00
65826;DHT22;52586;-43.152;172.732;2024-03-25T10:37:15;23.20;42.00
65826;DHT22;52586;-43.152;172.732;2024-03-25T10:39:49;23.20;42.00
65826;DHT22;52586;-43.152;172.732;2024-03-25T10:42:20;23.20;42.10
65826;DHT22;52586;-43.152;172.732;2024-03-25T10:44:49;23.20;42.10
65826;DHT22;52586;-43.152;172.732;2024-03-25T10:47:21;23.20;42.10
65826;DHT22;52586;-43.152;172.732;2024-03-25T10:49:57;23.20;42.10
65826;DHT22;52586;-43.152;172.732;2024-03-25T10:52:28;23.20;42.00
65826;DHT22;52586;-43.152;172.732;2024-03-25T10:54:58;23.20;42.60
65826;DHT22;52586;-43.152;172.732;2024-03-25T10:57:27;23.20;42.00
65826;DHT22;52586;-43.152;172.732;2024-03-25T10:59:57;23.20;42.60
65826;DHT22;52586;-43.152;172.732;2024-03-25T11:02:33;23.10;42.00
65826;DHT22;52586;-43.152;172.732;2024-03-25T11:05:02;23.10;42.00
65826;DHT22;52586;-43.152;172.732;2024-03-25T11:07:33;23.10;42.00
65826;DHT22;52586;-43.152;172.732;2024-03-25T11:10:06;23.10;42.10
65826;DHT22;52586;-43.152;172.732;2024-03-25T11:12:36;23.10;42.80
65826;DHT22;52586;-43.152;172.732;2024-03-25T11:15:06;23.10;42.20
65826;DHT22;52586;-43.152;172.732;2024-03-25T11:17:35;23.10;42.20
65826;DHT22;52586;-43.152;172.732;2024-03-25T11:20:15;23.10;42.20
65826;DHT22;52586;-43.152;172.732;2024-03-25T11:22:52;23.10;42.30
65826;DHT22;52586;-43.152;172.732;2024-03-25T11:25:22;23.10;42.20
65826;DHT22;52586;-43.152;172.732;2024-03-25T11:27:50;23.00;42.20
65826;DHT22;52586;-43.152;172.732;2024-03-25T11:30:19;23.00;42.30
65826;DHT22;52586;-43.152;172.732;2024-03-25T11:32:51;23.00;42.30
65826;DHT22;52586;-43.152;172.732;2024-03-25T11:35:20;23.00;42.40
65826;DHT22;52586;-43.152;172.732;2024-03-25T11:37:50;23.00;42.40
65826;DHT22;52586;-43.152;172.732;2024-03-25T11:40:19;23.00;42.40
65826;DHT22;52586;-43.152;172.732;2024-03-25T11:42:48;23.00;42.30
65826;DHT22;52586;-43.152;172.732;2024-03-25T11:45:17;23.00;42.30
65826;DHT22;52586;-43.152;172.732;2024-03-25T11:47:46;23.00;42.30
65826;DHT22;52586;-43.152;172.732;2024-03-25T11:50:16;23.00;42.20
65826;DHT22;52586;-43.152;172.732;2024-03-25T11:52:45;23.00;42.20
65826;DHT22;52586;-43.152;172.732;2024-03-25T11:55:19;23.00;42.30
65826;DHT22;52586;-43.152;172.732;2024-03-25T11:57:54;23.00;42.40
65826;DHT22;52586;-43.152;172.732;2024-03-25T12:00:23;23.00;42.40
65826;DHT22;52586;-43.152;172.732;2024-03-25T12:02:52;23.00;42.40
65826;DHT22;52586;-43.152;172.732;2024-03-25T12:05:21;23.00;42.40
65826;DHT22;52586;-43.152;172.732;2024-03-25T12:14:56;23.00;42.40
65826;DHT22;52586;-43.152;172.732;2024-03-25T12:17:25;22.90;42.40
65826;DHT22;52586;-43.152;172.732;2024-03-25T12:20:02;22.90;42.50
65826;DHT22;52586;-43.152;172.732;2024-03-25T12:22:32;22.90;42.60
65826;DHT22;52586;-43.152;172.732;2024-03-25T12:25:02;22.90;42.60
65826;DHT22;52586;-43.152;172.732;2024-03-25T12:27:31;22.90;42.60
65826;DHT22;52586;-43.152;172.732;2024-03-25T12:30:03;22.90;42.60
65826;DHT22;52586;-43.152;172.732;2024-03-25T12:32:36;22.90;42.60
65826;DHT22;52586;-43.152;172.732;2024-03-25T12:35:08;22.90;42.50
65826;DHT22;52586;-43.152;172.732;2024-03-25T12:37:38;22.90;42.50
65826;DHT22;52586;-43.152;172.732;2024-03-25T12:40:11;22.90;42.50
65826;DHT22;52586;-43.152;172.732;2024-03-25T12:42:40;22.90;42.60
65826;DHT22;52586;-43.152;172.732;2024-03-25T12:45:10;22.90;42.60
65826;DHT22;52586;-43.152;172.732;2024-03-25T12:47:39;22.90;42.70
65826;DHT22;52586;-43.152;172.732;2024-03-25T12:50:09;22.90;42.60
65826;DHT22;52586;-43.152;172.732;2024-03-25T12:52:38;22.80;42.60
65826;DHT22;52586;-43.152;172.732;2024-03-25T12:55:07;22.80;42.60
65826;DHT22;52586;-43.152;172.732;2024-03-25T12:57:37;22.80;42.60
65826;DHT22;52586;-43.152;172.732;2024-03-25T13:00:09;22.80;42.60
65826;DHT22;52586;-43.152;172.732;2024-03-25T13:02:38;22.80;42.60
65826;DHT22;52586;-43.152;172.732;2024-03-25T13:05:07;22.80;42.60
65826;DHT22;52586;-43.152;172.732;2024-03-25T13:07:35;22.80;42.70
65826;DHT22;52586;-43.152;172.732;2024-03-25T13:10:04;22.80;42.70
65826;DHT22;52586;-43.152;172.732;2024-03-25T13:12:33;22.80;42.70
65826;DHT22;52586;-43.152;172.732;2024-03-25T13:15:02;22.80;42.60
65826;DHT22;52586;-43.152;172.732;2024-03-25T13:17:32;22.80;42.60
65826;DHT22;52586;-43.152;172.732;2024-03-25T13:20:01;22.80;42.60
65826;DHT22;52586;-43.152;172.732;2024-03-25T13:22:30;22.80;42.50
65826;DHT22;52586;-43.152;172.732;2024-03-25T13:24:59;22.80;42.60
65826;DHT22;52586;-43.152;172.732;2024-03-25T13:27:28;22.80;42.60
65826;DHT22;52586;-43.152;172.732;2024-03-25T13:29:56;22.80;42.60
65826;DHT22;52586;-43.152;172.732;2024-03-25T13:32:25;22.80;42.50
65826;DHT22;52586;-43.152;172.732;2024-03-25T13:34:56;22.80;42.60
65826;DHT22;52586;-43.152;172.732;2024-03-25T13:37:24;22.70;42.60
65826;DHT22;52586;-43.152;172.732;2024-03-25T13:39:53;22.70;42.60
65826;DHT22;52586;-43.152;172.732;2024-03-25T13:42:22;22.70;42.70
65826;DHT22;52586;-43.152;172.732;2024-03-25T13:44:50;22.70;42.70
65826;DHT22;52586;-43.152;172.732;2024-03-25T13:47:19;22.70;42.70
65826;DHT22;52586;-43.152;172.732;2024-03-25T13:49:48;22.70;42.70
65826;DHT22;52586;-43.152;172.732;2024-03-25T13:52:18;22.70;42.70
65826;DHT22;52586;-43.152;172.732;2024-03-25T13:54:47;22.70;42.70
65826;DHT22;52586;-43.152;172.732;2024-03-25T13:57:16;22.70;42.70
65826;DHT22;52586;-43.152;172.732;2024-03-25T13:59:44;22.70;42.80
65826;DHT22;52586;-43.152;172.732;2024-03-25T14:02:13;22.70;42.80
65826;DHT22;52586;-43.152;172.732;2024-03-25T14:04:42;22.70;42.80
65826;DHT22;52586;-43.152;172.732;2024-03-25T14:07:10;22.70;42.70
65826;DHT22;52586;-43.152;172.732;2024-03-25T14:09:41;22.70;42.70
65826;DHT22;52586;-43.152;172.732;2024-03-25T14:12:09;22.70;42.70
65826;DHT22;52586;-43.152;172.732;2024-03-25T14:14:38;22.70;42.70
65826;DHT22;52586;-43.152;172.732;2024-03-25T14:17:07;22.70;42.70
65826;DHT22;52586;-43.152;172.732;2024-03-25T14:19:35;22.70;42.70
65826;DHT22;52586;-43.152;172.732;2024-03-25T14:22:04;22.70;42.70
65826;DHT22;52586;-43.152;172.732;2024-03-25T14:24:33;22.70;42.80
65826;DHT22;52586;-43.152;172.732;2024-03-25T14:27:03;22.70;42.80
65826;DHT22;52586;-43.152;172.732;2024-03-25T14:29:32;22.70;43.00
65826;DHT22;52586;-43.152;172.732;2024-03-25T14:32:00;22.70;43.00
65826;DHT22;52586;-43.152;172.732;2024-03-25T14:34:29;22.70;43.00
65826;DHT22;52586;-43.152;172.732;2024-03-25T14:36:58;22.60;43.00
65826;DHT22;52586;-43.152;172.732;2024-03-25T14:39:27;22.60;43.00
65826;DHT22;52586;-43.152;172.732;2024-03-25T14:41:55;22.60;43.00
65826;DHT22;52586;-43.152;172.732;2024-03-25T14:44:26;22.60;43.00
65826;DHT22;52586;-43.152;172.732;2024-03-25T14:46:55;22.60;43.00
65826;DHT22;52586;-43.152;172.732;2024-03-25T14:49:24;22.60;43.10
65826;DHT22;52586;-43.152;172.732;2024-03-25T14:51:52;22.60;43.00
65826;DHT22;52586;-43.152;172.732;2024-03-25T14:54:21;22.60;43.00
65826;DHT22;52586;-43.152;172.732;2024-03-25T14:56:50;22.60;43.00
65826;DHT22;52586;-43.152;172.732;2024-03-25T14:59:18;22.70;43.00
65826;DHT22;52586;-43.152;172.732;2024-03-25T15:01:49;22.60;43.00
65826;DHT22;52586;-43.152;172.732;2024-03-25T15:04:17;22.60;43.00
65826;DHT22;52586;-43.152;172.732;2024-03-25T15:06:46;22.70;43.00
65826;DHT22;52586;-43.152;172.732;2024-03-25T15:09:15;22.60;43.00
65826;DHT22;52586;-43.152;172.732;2024-03-25T15:11:43;22.60;43.00